Welge, Illinois
Current Conditions -  °F | °C
As of 7:35 PM on Thursday 27 Nov 2014 (Local Time) from KSAR Reporting Station
Clear Clear  
Wind Chill: 23°   Ceiling: Unl
Heat Index: 23°   Visibility: 10mi
Dew Point: 21°   Wind: 3mph
Humidity: 93%   Direction: 60°ENE
Pressure: 30.48"   Gusts: NA
Location:  37.9878°N, 89.6781°W
Report Text: KSAR 280135Z AUTO 06003KT 10SM CLR M05/M06 A3048 RMK AO2 T10501060
Loading
Personal Weather Stations






























Interactive Weather Map New forecast layout! Learn more

10-Day Weather Forecast

Advertisements
Track Severe Weather on mobile